Terminal Aerodrome Forecast
Issued by NWS Sterling, VA

Home | Current Version | Previous Version | Text Only | Print | Product List | Glossary On
Versions: 1 2 3 4 5 6 7 8 9 10 11 12 13 14 15 16 17 18 19 20 21 22 23 24 25 26
000
FTUS41 KLWX 110500
TAFDCA
TAF
KDCA 110536Z 1106/1206 VRB04KT P6SM FEW140
     FM111100 03004KT P6SM FEW140
     FM112100 09007KT P6SM SCT050
     FM120400 VRB03KT P6SM SCT050=

USA.gov is the U.S. government's official web portal to all federal, state and local government web resources and services.